createdAt,value
2023-03-02T00:00:52.067Z,5.00
2023-03-02T00:03:41.774Z,5.00
2023-03-02T00:06:31.205Z,5.00
2023-03-02T00:09:21.219Z,5.00
2023-03-02T00:12:09.752Z,5.10
2023-03-02T00:14:56.732Z,5.00
2023-03-02T00:17:44.106Z,4.90
2023-03-02T00:20:31.515Z,4.90
2023-03-02T00:23:19.114Z,5.00
2023-03-02T00:26:07.183Z,5.00
2023-03-02T00:28:54.582Z,5.00
2023-03-02T00:31:42.260Z,5.00
2023-03-02T00:34:31.370Z,5.00
2023-03-02T00:37:18.516Z,4.80
2023-03-02T00:40:09.556Z,4.80
2023-03-02T00:42:56.679Z,4.70
2023-03-02T00:45:44.523Z,4.60
2023-03-02T00:48:31.773Z,4.70
2023-03-02T00:51:19.677Z,4.70
2023-03-02T00:54:06.780Z,4.70
2023-03-02T00:56:54.482Z,4.70
2023-03-02T00:59:41.701Z,4.70
2023-03-02T01:02:28.989Z,4.60
2023-03-02T01:05:16.921Z,4.60
2023-03-02T01:08:04.322Z,4.60
2023-03-02T01:10:54.152Z,4.60
2023-03-02T01:13:40.953Z,4.50
2023-03-02T01:16:28.613Z,4.50
2023-03-02T01:19:16.733Z,4.60
2023-03-02T01:22:05.982Z,4.60
2023-03-02T01:24:53.400Z,4.50
2023-03-02T01:27:43.734Z,4.50
2023-03-02T01:30:31.261Z,4.50
2023-03-02T01:33:18.690Z,4.50
2023-03-02T01:36:06.637Z,4.50
2023-03-02T01:38:54.291Z,4.50
2023-03-02T01:41:41.462Z,4.40
2023-03-02T01:44:42.344Z,4.40
2023-03-02T01:47:38.860Z,4.40
2023-03-02T01:50:28.061Z,4.40
2023-03-02T01:53:16.852Z,4.40
2023-03-02T01:56:06.267Z,4.40
2023-03-02T01:58:56.919Z,4.50
2023-03-02T02:01:46.463Z,4.50
2023-03-02T02:04:35.327Z,4.40
2023-03-02T02:07:22.641Z,4.40
2023-03-02T02:10:11.231Z,4.40
2023-03-02T02:12:58.445Z,4.50
2023-03-02T02:15:46.238Z,4.50
2023-03-02T02:18:35.589Z,4.50
2023-03-02T02:21:25.208Z,4.50
2023-03-02T02:24:24.151Z,4.60
2023-03-02T02:27:12.068Z,4.60
2023-03-02T02:30:00.114Z,4.60
2023-03-02T02:32:49.788Z,4.60
2023-03-02T02:35:38.720Z,4.50
2023-03-02T02:38:26.476Z,4.50
2023-03-02T02:41:16.552Z,4.60
2023-03-02T02:44:03.323Z,4.60
2023-03-02T02:46:50.593Z,4.60
2023-03-02T02:49:41.039Z,4.70
2023-03-02T02:52:29.791Z,4.70
2023-03-02T02:55:20.469Z,4.60
2023-03-02T02:58:13.927Z,4.60
2023-03-02T03:01:02.104Z,4.50
2023-03-02T03:03:54.965Z,4.60
2023-03-02T03:06:45.690Z,4.60
2023-03-02T03:09:33.761Z,4.60
2023-03-02T03:12:23.907Z,4.50
2023-03-02T03:15:12.142Z,4.60
2023-03-02T03:18:00.194Z,4.60
2023-03-02T03:20:47.213Z,4.60
2023-03-02T03:23:36.308Z,4.70
2023-03-02T03:26:23.448Z,4.70
2023-03-02T03:29:11.382Z,4.70
2023-03-02T03:32:00.456Z,4.70
2023-03-02T03:34:47.836Z,4.60
2023-03-02T03:37:35.460Z,4.60
2023-03-02T03:40:22.935Z,4.70
2023-03-02T03:43:10.237Z,4.70
2023-03-02T03:45:57.849Z,4.60
2023-03-02T03:48:44.978Z,4.70
2023-03-02T03:51:34.051Z,4.70
2023-03-02T03:54:21.235Z,4.70
2023-03-02T03:57:10.648Z,4.70
2023-03-02T03:59:57.966Z,4.80
2023-03-02T04:02:47.285Z,4.80
2023-03-02T04:05:34.548Z,4.70
2023-03-02T04:08:22.949Z,4.70
2023-03-02T04:11:10.455Z,4.70
2023-03-02T04:13:57.618Z,4.70
2023-03-02T04:16:45.484Z,4.70
2023-03-02T04:19:35.204Z,4.70
2023-03-02T04:22:22.607Z,4.70
2023-03-02T04:25:09.891Z,4.80
2023-03-02T04:27:57.700Z,4.80
2023-03-02T04:30:44.756Z,4.80
2023-03-02T04:33:32.125Z,4.70
2023-03-02T04:36:20.036Z,4.60
2023-03-02T04:39:08.822Z,4.40
2023-03-02T04:41:56.982Z,4.30
2023-03-02T04:44:44.512Z,4.10
2023-03-02T04:47:32.231Z,4.00
2023-03-02T04:50:19.015Z,4.00
2023-03-02T04:53:06.435Z,4.10
2023-03-02T04:55:53.780Z,4.10
2023-03-02T04:58:41.188Z,4.20
2023-03-02T05:01:29.492Z,4.20
2023-03-02T05:04:17.076Z,4.20
2023-03-02T05:07:04.140Z,4.30
2023-03-02T05:09:51.624Z,4.30
2023-03-02T05:12:56.759Z,4.40
2023-03-02T05:15:44.053Z,4.30
2023-03-02T05:18:31.407Z,4.10
2023-03-02T05:21:20.038Z,4.00
2023-03-02T05:24:07.933Z,3.90
2023-03-02T05:26:55.586Z,3.90
2023-03-02T05:29:42.869Z,3.80
2023-03-02T05:32:30.061Z,3.70
2023-03-02T05:35:18.256Z,3.60
2023-03-02T05:38:05.874Z,3.60
2023-03-02T05:40:53.047Z,3.70
2023-03-02T05:43:40.875Z,3.80
2023-03-02T05:46:28.353Z,3.80
2023-03-02T05:49:15.383Z,3.90
2023-03-02T05:52:02.362Z,3.90
2023-03-02T05:54:49.546Z,4.00
2023-03-02T05:57:37.143Z,4.10
2023-03-02T06:00:25.240Z,4.20
2023-03-02T06:03:13.200Z,4.30
2023-03-02T06:06:00.770Z,4.30
2023-03-02T06:08:48.231Z,4.40
2023-03-02T06:11:42.895Z,4.50
2023-03-02T06:14:30.250Z,4.60
2023-03-02T06:17:17.809Z,4.60
2023-03-02T06:20:07.139Z,4.60
2023-03-02T06:22:54.305Z,4.60
2023-03-02T06:25:43.499Z,4.60
2023-03-02T06:28:31.023Z,4.70
2023-03-02T06:31:18.367Z,4.70
2023-03-02T06:34:05.578Z,4.70
2023-03-02T06:36:52.852Z,4.70
2023-03-02T06:39:40.518Z,4.80
2023-03-02T06:42:28.812Z,4.80
2023-03-02T06:45:15.985Z,4.80
2023-03-02T06:48:03.999Z,4.80
2023-03-02T06:50:51.414Z,4.90
2023-03-02T06:53:39.253Z,5.00
2023-03-02T06:56:29.197Z,5.00
2023-03-02T06:59:16.466Z,5.00
2023-03-02T07:02:03.525Z,5.10
2023-03-02T07:04:50.718Z,5.20
2023-03-02T07:07:38.193Z,5.20
2023-03-02T07:10:25.754Z,5.30
2023-03-02T07:13:13.144Z,5.40
2023-03-02T07:16:00.711Z,5.50
2023-03-02T07:18:49.498Z,5.50
2023-03-02T07:21:36.744Z,5.70
2023-03-02T07:24:24.110Z,5.80
2023-03-02T07:27:11.130Z,5.80
2023-03-02T07:29:58.513Z,5.90
2023-03-02T07:32:45.425Z,5.90
2023-03-02T07:35:32.685Z,5.90
2023-03-02T07:38:19.915Z,6.00
2023-03-02T07:41:09.156Z,6.00
2023-03-02T07:43:57.159Z,6.00
2023-03-02T07:46:44.470Z,6.00
2023-03-02T07:49:31.788Z,6.10
2023-03-02T07:52:19.079Z,6.30
2023-03-02T07:55:06.436Z,6.40
2023-03-02T07:57:53.405Z,6.50
2023-03-02T08:00:42.772Z,6.60
2023-03-02T08:03:30.335Z,6.60
2023-03-02T08:06:17.551Z,6.60
2023-03-02T08:09:05.667Z,6.80
2023-03-02T08:11:53.082Z,6.90
2023-03-02T08:14:40.545Z,7.00
2023-03-02T08:17:27.883Z,7.10
2023-03-02T08:20:15.156Z,7.00
2023-03-02T08:23:02.371Z,7.10
2023-03-02T08:25:49.710Z,7.20
2023-03-02T08:28:37.025Z,7.00
2023-03-02T08:31:24.155Z,7.10
2023-03-02T08:34:11.786Z,7.20
2023-03-02T08:36:58.558Z,7.30
2023-03-02T08:39:46.776Z,7.20
2023-03-02T08:42:34.471Z,7.30
2023-03-02T08:45:21.724Z,7.40
2023-03-02T08:48:09.111Z,7.60
2023-03-02T08:50:59.088Z,7.50
2023-03-02T08:53:50.414Z,7.50
2023-03-02T08:56:40.233Z,7.60
2023-03-02T08:59:27.581Z,7.70
2023-03-02T09:02:14.670Z,7.90
2023-03-02T09:05:02.218Z,8.00
2023-03-02T09:07:49.441Z,8.20
2023-03-02T09:10:36.788Z,8.10
2023-03-02T09:13:24.211Z,8.20
2023-03-02T09:16:12.112Z,8.30
2023-03-02T09:18:59.252Z,8.50
2023-03-02T09:21:46.746Z,8.80
2023-03-02T09:24:34.250Z,8.80
2023-03-02T09:27:21.308Z,8.70
2023-03-02T09:30:11.290Z,8.80
2023-03-02T09:32:58.685Z,9.00
2023-03-02T09:35:47.530Z,9.30
2023-03-02T09:38:34.776Z,9.50
2023-03-02T09:41:31.874Z,9.80
2023-03-02T09:44:37.083Z,9.80
2023-03-02T09:47:36.258Z,10.00
2023-03-02T09:50:35.530Z,10.00
2023-03-02T09:53:48.984Z,10.20
2023-03-02T09:56:39.308Z,9.90
2023-03-02T09:59:32.485Z,10.30
2023-03-02T10:02:46.602Z,11.00
2023-03-02T10:05:41.682Z,11.10
2023-03-02T10:08:32.421Z,11.00
2023-03-02T10:11:36.843Z,11.00
2023-03-02T10:14:29.541Z,11.20
2023-03-02T10:17:33.861Z,11.90
2023-03-02T10:20:24.003Z,11.80
2023-03-02T10:23:22.903Z,11.80
2023-03-02T10:26:18.799Z,11.90
2023-03-02T10:29:17.360Z,11.60
2023-03-02T10:32:25.904Z,11.40
2023-03-02T10:35:16.263Z,11.70
2023-03-02T10:38:15.333Z,11.40
2023-03-02T10:41:07.034Z,11.70
2023-03-02T10:43:57.487Z,12.10
2023-03-02T10:46:46.811Z,11.70
2023-03-02T10:49:36.559Z,12.10
2023-03-02T10:52:29.328Z,12.50
2023-03-02T10:55:17.336Z,12.20
2023-03-02T10:58:07.533Z,12.50
2023-03-02T11:01:02.890Z,12.40
2023-03-02T11:03:58.461Z,12.10
2023-03-02T11:06:45.391Z,12.40
2023-03-02T11:09:32.422Z,12.90
2023-03-02T11:12:20.399Z,13.20
2023-03-02T11:15:25.384Z,13.70
2023-03-02T11:18:39.252Z,13.10
2023-03-02T11:21:33.206Z,13.10
2023-03-02T11:24:23.767Z,13.10
2023-03-02T11:27:25.410Z,13.10
2023-03-02T11:30:16.082Z,13.30
2023-03-02T11:33:11.318Z,14.30
2023-03-02T11:36:04.784Z,14.20
2023-03-02T11:38:54.864Z,14.30
2023-03-02T11:41:42.868Z,14.80
2023-03-02T11:44:30.463Z,15.30
2023-03-02T11:47:20.326Z,14.50
2023-03-02T11:50:10.138Z,14.50
2023-03-02T11:53:00.286Z,14.70
2023-03-02T11:55:50.500Z,14.80
2023-03-02T11:58:41.659Z,14.90
2023-03-02T12:01:30.257Z,14.80
2023-03-02T12:04:34.941Z,15.10
2023-03-02T12:07:25.610Z,15.30
2023-03-02T12:10:28.589Z,15.50
2023-03-02T12:13:24.932Z,15.90
2023-03-02T12:16:23.787Z,16.10
2023-03-02T12:19:28.906Z,16.10
2023-03-02T12:22:18.936Z,16.20
2023-03-02T12:25:24.181Z,16.00
2023-03-02T12:28:26.554Z,16.00
2023-03-02T12:31:15.053Z,15.30
2023-03-02T12:34:03.796Z,14.90
2023-03-02T12:36:58.620Z,15.20
2023-03-02T12:40:12.297Z,15.60
2023-03-02T12:43:24.704Z,15.60
2023-03-02T12:46:33.054Z,16.10
2023-03-02T12:49:45.392Z,15.70
2023-03-02T12:52:34.943Z,14.80
2023-03-02T12:55:22.334Z,14.80
2023-03-02T12:58:18.412Z,14.70
2023-03-02T13:01:06.351Z,14.80
2023-03-02T13:03:54.596Z,14.50
2023-03-02T13:06:42.141Z,14.50
2023-03-02T13:09:30.445Z,14.60
2023-03-02T13:12:17.503Z,14.40
2023-03-02T13:15:06.749Z,14.20
2023-03-02T13:17:59.715Z,14.50
2023-03-02T13:20:47.822Z,14.60
2023-03-02T13:23:35.563Z,14.30
2023-03-02T13:26:28.727Z,14.10
2023-03-02T13:29:23.010Z,13.90
2023-03-02T13:32:22.618Z,13.90
2023-03-02T13:35:18.806Z,14.00
2023-03-02T13:38:23.334Z,14.20
2023-03-02T13:41:10.986Z,13.80
2023-03-02T13:43:59.242Z,14.00
2023-03-02T13:46:47.472Z,14.10
2023-03-02T13:49:36.805Z,14.10
2023-03-02T13:52:31.486Z,13.80
2023-03-02T13:55:20.985Z,14.00
2023-03-02T13:58:11.558Z,13.80
2023-03-02T14:00:58.675Z,13.90
2023-03-02T14:03:45.416Z,13.90
2023-03-02T14:06:32.892Z,13.90
2023-03-02T14:09:20.639Z,13.90
2023-03-02T14:12:08.034Z,14.00
2023-03-02T14:14:58.955Z,13.90
2023-03-02T14:17:48.168Z,13.70
2023-03-02T14:20:35.188Z,13.70
2023-03-02T14:23:22.063Z,13.90
2023-03-02T14:26:32.116Z,13.80
2023-03-02T14:29:28.029Z,13.70
2023-03-02T14:32:17.409Z,13.80
2023-03-02T14:35:05.250Z,13.70
2023-03-02T14:37:52.448Z,13.90
2023-03-02T14:40:39.830Z,14.00
2023-03-02T14:43:29.525Z,14.20
2023-03-02T14:46:16.648Z,13.90
2023-03-02T14:49:03.945Z,14.00
2023-03-02T14:52:00.237Z,14.00
2023-03-02T14:54:53.734Z,13.80
2023-03-02T14:57:43.391Z,13.80
2023-03-02T15:00:30.572Z,13.90
2023-03-02T15:03:21.329Z,14.00
2023-03-02T15:06:14.342Z,13.80
2023-03-02T15:09:02.109Z,13.70
2023-03-02T15:11:49.398Z,13.60
2023-03-02T15:14:36.964Z,13.70
2023-03-02T15:17:24.260Z,13.70
2023-03-02T15:20:18.011Z,13.60
2023-03-02T15:23:05.483Z,13.70
2023-03-02T15:25:52.652Z,13.80
2023-03-02T15:28:40.293Z,13.50
2023-03-02T15:31:28.150Z,13.70
2023-03-02T15:34:15.514Z,13.60
2023-03-02T15:37:03.019Z,13.60
2023-03-02T15:39:55.269Z,13.70
2023-03-02T15:42:42.576Z,13.70
2023-03-02T15:45:30.001Z,13.50
2023-03-02T15:48:17.310Z,13.40
2023-03-02T15:51:06.951Z,13.60
2023-03-02T15:53:54.338Z,13.60
2023-03-02T15:56:44.262Z,13.50
2023-03-02T15:59:32.205Z,13.50
2023-03-02T16:02:19.226Z,13.50
2023-03-02T16:05:06.742Z,13.60
2023-03-02T16:07:53.754Z,13.60
2023-03-02T16:10:42.926Z,13.60
2023-03-02T16:13:30.839Z,13.40
2023-03-02T16:16:18.314Z,13.40
2023-03-02T16:19:05.800Z,13.40
2023-03-02T16:21:53.362Z,13.30
2023-03-02T16:24:41.864Z,13.30
2023-03-02T16:27:30.358Z,13.20
2023-03-02T16:30:17.988Z,13.00
2023-03-02T16:33:07.586Z,12.70
2023-03-02T16:35:54.886Z,12.70
2023-03-02T16:38:42.693Z,12.50
2023-03-02T16:41:30.099Z,12.40
2023-03-02T16:44:17.654Z,12.40
2023-03-02T16:47:05.836Z,12.20
2023-03-02T16:49:56.059Z,12.10
2023-03-02T16:52:43.840Z,12.10
2023-03-02T16:55:31.479Z,12.00
2023-03-02T16:58:18.759Z,11.90
2023-03-02T17:01:07.343Z,11.80
2023-03-02T17:03:54.899Z,11.70
2023-03-02T17:06:59.720Z,11.60
2023-03-02T17:09:37.586Z,11.60
2023-03-02T17:12:25.055Z,11.40
2023-03-02T17:15:14.177Z,11.30
2023-03-02T17:18:01.666Z,11.30
2023-03-02T17:20:54.205Z,11.20
2023-03-02T17:23:41.656Z,11.20
2023-03-02T17:26:28.871Z,11.00
2023-03-02T17:29:16.153Z,10.90
2023-03-02T17:32:03.457Z,10.80
2023-03-02T17:34:51.011Z,10.60
2023-03-02T17:37:39.112Z,10.60
2023-03-02T17:40:30.288Z,10.50
2023-03-02T17:43:17.907Z,10.40
2023-03-02T17:46:13.815Z,10.30
2023-03-02T17:49:01.872Z,10.30
2023-03-02T17:51:49.091Z,10.30
2023-03-02T17:54:36.751Z,10.20
2023-03-02T17:57:24.512Z,10.20
2023-03-02T18:00:15.365Z,10.10
2023-03-02T18:03:02.861Z,10.10
2023-03-02T18:05:50.263Z,10.00
2023-03-02T18:08:37.633Z,10.00
2023-03-02T18:11:25.761Z,9.90
2023-03-02T18:14:18.553Z,9.90
2023-03-02T18:17:10.330Z,9.90
2023-03-02T18:19:57.650Z,9.80
2023-03-02T18:22:44.796Z,9.70
2023-03-02T18:25:32.348Z,9.70
2023-03-02T18:28:20.000Z,9.70
2023-03-02T18:31:08.305Z,9.70
2023-03-02T18:33:55.555Z,9.60
2023-03-02T18:36:42.871Z,9.60
2023-03-02T18:39:30.136Z,9.60
2023-03-02T18:42:17.663Z,9.50
2023-03-02T18:45:10.337Z,9.50
2023-03-02T18:47:58.919Z,9.50
2023-03-02T18:50:47.350Z,9.40
2023-03-02T18:53:34.843Z,9.40
2023-03-02T18:56:23.829Z,9.40
2023-03-02T18:59:12.040Z,9.30
2023-03-02T19:01:59.040Z,9.30
2023-03-02T19:04:47.746Z,9.30
2023-03-02T19:07:35.337Z,9.20
2023-03-02T19:10:22.837Z,9.10
2023-03-02T19:13:11.702Z,9.10
2023-03-02T19:16:00.534Z,9.10
2023-03-02T19:18:48.516Z,9.10
2023-03-02T19:21:35.822Z,9.00
2023-03-02T19:24:23.153Z,9.00
2023-03-02T19:27:11.824Z,8.90
2023-03-02T19:29:58.980Z,8.90
2023-03-02T19:32:46.773Z,8.80
2023-03-02T19:35:35.125Z,8.80
2023-03-02T19:38:22.689Z,8.80
2023-03-02T19:41:12.963Z,8.80
2023-03-02T19:44:00.612Z,8.80
2023-03-02T19:46:47.765Z,8.70
2023-03-02T19:49:36.505Z,8.70
2023-03-02T19:52:24.510Z,8.60
2023-03-02T19:55:13.546Z,8.50
2023-03-02T19:58:01.918Z,8.50
2023-03-02T20:00:49.638Z,8.50
2023-03-02T20:03:36.995Z,8.40
2023-03-02T20:06:29.483Z,8.50
2023-03-02T20:09:18.704Z,8.50
2023-03-02T20:12:08.006Z,8.40
2023-03-02T20:14:56.743Z,8.40
2023-03-02T20:17:45.550Z,8.40
2023-03-02T20:20:32.915Z,8.30
2023-03-02T20:23:20.311Z,8.30
2023-03-02T20:26:07.393Z,8.30
2023-03-02T20:28:56.106Z,8.30
2023-03-02T20:31:43.540Z,8.20
2023-03-02T20:34:31.540Z,8.20
2023-03-02T20:37:18.625Z,8.20
2023-03-02T20:40:08.000Z,8.10
2023-03-02T20:42:55.451Z,8.00
2023-03-02T20:45:43.111Z,8.00
2023-03-02T20:48:30.369Z,8.00
2023-03-02T20:51:19.358Z,8.00
2023-03-02T20:54:06.779Z,7.90
2023-03-02T20:56:54.636Z,7.90
2023-03-02T20:59:42.369Z,7.80
2023-03-02T21:02:29.686Z,7.80
2023-03-02T21:05:22.104Z,7.80
2023-03-02T21:08:13.547Z,7.80
2023-03-02T21:11:01.378Z,7.70
2023-03-02T21:13:49.618Z,7.70
2023-03-02T21:16:39.542Z,7.70
2023-03-02T21:19:29.415Z,7.80
2023-03-02T21:22:16.685Z,7.80
2023-03-02T21:25:04.237Z,7.80
2023-03-02T21:27:51.599Z,7.80
2023-03-02T21:30:40.328Z,7.70
2023-03-02T21:33:27.829Z,7.60
2023-03-02T21:36:23.700Z,7.50
2023-03-02T21:39:11.839Z,7.50
2023-03-02T21:41:59.049Z,7.50
2023-03-02T21:44:46.784Z,7.50
2023-03-02T21:47:33.825Z,7.50
2023-03-02T21:50:24.207Z,7.50
2023-03-02T21:53:11.533Z,7.50
2023-03-02T21:55:59.020Z,7.50
2023-03-02T21:58:47.141Z,7.40
2023-03-02T22:01:34.422Z,7.40
2023-03-02T22:04:21.720Z,7.30
2023-03-02T22:07:09.012Z,7.30
2023-03-02T22:09:56.206Z,7.30
2023-03-02T22:12:44.522Z,7.30
2023-03-02T22:15:32.466Z,7.20
2023-03-02T22:18:22.391Z,7.30
2023-03-02T22:21:34.472Z,7.30
2023-03-02T22:24:28.291Z,7.20
2023-03-02T22:27:24.371Z,7.20
2023-03-02T22:30:23.746Z,7.10
2023-03-02T22:33:20.087Z,7.00
2023-03-02T22:36:16.239Z,7.00
2023-03-02T22:39:06.630Z,7.00
2023-03-02T22:41:57.262Z,6.90
2023-03-02T22:44:46.644Z,6.90
2023-03-02T22:47:34.021Z,6.90
2023-03-02T22:50:29.670Z,7.00
2023-03-02T22:53:25.269Z,7.00
2023-03-02T22:56:19.670Z,6.90
2023-03-02T22:59:26.701Z,6.90
2023-03-02T23:02:20.621Z,6.80
2023-03-02T23:05:27.694Z,6.80
2023-03-02T23:08:29.523Z,6.80
2023-03-02T23:11:19.914Z,6.80
2023-03-02T23:14:25.508Z,6.70
2023-03-02T23:17:15.680Z,6.70
2023-03-02T23:20:03.317Z,6.70
2023-03-02T23:22:50.517Z,6.70
2023-03-02T23:25:37.594Z,6.70
2023-03-02T23:28:24.737Z,6.70
2023-03-02T23:31:11.826Z,6.60
2023-03-02T23:33:59.003Z,6.60
2023-03-02T23:36:46.294Z,6.60
2023-03-02T23:39:33.611Z,6.60
2023-03-02T23:42:23.062Z,6.50
2023-03-02T23:45:10.905Z,6.50
2023-03-02T23:47:59.076Z,6.40
2023-03-02T23:50:46.563Z,6.40
2023-03-02T23:53:33.815Z,6.30
2023-03-02T23:56:21.328Z,6.30
2023-03-02T23:59:08.809Z,6.30
